DRZN weather

N'Guigmi Airport
N'Guigmi, Diffa Region, Niger

Public forecast

Using degrees Celsius for public forecast. Weather courtesy of forecast.io.

METAR (pilot weather report)

Report is more than 6 hours old.

Closest report is Diffa Airport, 60.3 nm (111.7 km) SSW. Retrieved 2009/08/20 13:44 UTC (10 years ago):

DRZF 201344Z 22006KT 9999 TS SCT014 FEW043CB BKN300

TAF (pilot weather forecast)

Closest forecast is Zinder Airport, 243.1 nm (450.3 km) W. Retrieved 2019/02/19 12:21 UTC (2 hours ago):

TAF DRZR 191100Z 1912/2012 08012KT 1200 DU NSC BECMG 1916/1920 6000 NSW